createdAt,value
2023-01-23T00:03:14.148Z,94.13
2023-01-23T00:08:17.240Z,93.81
2023-01-23T00:13:25.787Z,94.61
2023-01-23T00:18:27.810Z,94.97
2023-01-23T00:23:34.168Z,94.78
2023-01-23T00:28:37.416Z,94.82
2023-01-23T00:33:41.095Z,94.14
2023-01-23T00:38:43.839Z,94.10
2023-01-23T00:43:50.818Z,93.69
2023-01-23T00:48:56.116Z,93.75
2023-01-23T00:53:58.889Z,94.21
2023-01-23T00:59:04.556Z,94.01
2023-01-23T01:04:07.036Z,94.13
2023-01-23T01:09:14.591Z,94.23
2023-01-23T01:14:19.457Z,93.48
2023-01-23T01:19:22.303Z,94.14
2023-01-23T01:24:24.973Z,94.79
2023-01-23T01:29:27.057Z,95.10
2023-01-23T01:34:31.531Z,95.14
2023-01-23T01:39:33.520Z,95.26
2023-01-23T01:45:03.768Z,95.44
2023-01-23T01:50:07.239Z,95.42
2023-01-23T01:55:15.404Z,95.20
2023-01-23T02:00:19.456Z,94.83
2023-01-23T02:05:36.000Z,93.76
2023-01-23T02:10:44.222Z,92.18
2023-01-23T02:15:47.502Z,92.88
2023-01-23T02:20:55.898Z,93.33
2023-01-23T02:26:28.021Z,93.37
2023-01-23T02:31:32.118Z,93.32
2023-01-23T02:36:35.562Z,93.56
2023-01-23T02:42:02.693Z,93.11
2023-01-23T02:47:19.373Z,93.19
2023-01-23T02:52:23.374Z,92.80
2023-01-23T02:57:25.998Z,92.95
2023-01-23T03:02:28.112Z,93.05
2023-01-23T03:07:30.183Z,93.62
2023-01-23T03:12:33.040Z,94.12
2023-01-23T03:17:36.827Z,93.75
2023-01-23T03:22:39.623Z,94.22
2023-01-23T03:27:43.690Z,94.13
2023-01-23T03:32:46.606Z,94.55
2023-01-23T03:37:50.951Z,94.61
2023-01-23T03:42:56.906Z,94.07
2023-01-23T03:48:02.597Z,93.80
2023-01-23T03:53:05.165Z,94.12
2023-01-23T03:58:10.046Z,94.27
2023-01-23T04:03:15.783Z,94.13
2023-01-23T04:08:18.106Z,94.25
2023-01-23T04:13:20.310Z,94.60
2023-01-23T04:18:23.659Z,94.92
2023-01-23T04:23:26.900Z,95.20
2023-01-23T04:28:32.517Z,95.36
2023-01-23T04:33:41.748Z,95.46
2023-01-23T04:38:44.484Z,95.51
2023-01-23T04:44:20.557Z,95.56
2023-01-23T04:50:05.251Z,95.64
2023-01-23T04:55:16.396Z,95.71
2023-01-23T05:00:19.885Z,95.75
2023-01-23T05:05:23.515Z,95.78
2023-01-23T05:10:27.815Z,95.78
2023-01-23T05:15:35.408Z,95.81
2023-01-23T05:20:38.687Z,95.69
2023-01-23T05:25:43.922Z,95.58
2023-01-23T05:30:51.728Z,95.55
2023-01-23T05:36:13.816Z,95.33
2023-01-23T05:41:19.638Z,94.80
2023-01-23T05:46:54.318Z,94.86
2023-01-23T05:51:57.351Z,94.67
2023-01-23T05:57:01.028Z,94.16
2023-01-23T06:02:15.566Z,93.98
2023-01-23T06:07:37.667Z,94.21
2023-01-23T06:12:41.771Z,94.65
2023-01-23T06:17:44.492Z,94.62
2023-01-23T06:22:47.548Z,94.58
2023-01-23T06:27:59.171Z,94.84
2023-01-23T06:33:03.153Z,95.16
2023-01-23T06:38:10.532Z,95.34
2023-01-23T06:43:13.769Z,95.17
2023-01-23T06:48:16.483Z,95.30
2023-01-23T06:53:19.649Z,95.45
2023-01-23T06:58:24.959Z,95.53
2023-01-23T07:03:28.393Z,95.60
2023-01-23T07:08:34.616Z,95.65
2023-01-23T07:13:38.290Z,95.71
2023-01-23T07:18:40.722Z,95.67
2023-01-23T07:23:43.745Z,95.73
2023-01-23T07:28:48.544Z,95.81
2023-01-23T07:33:50.876Z,95.87
2023-01-23T07:38:53.254Z,95.92
2023-01-23T07:43:59.164Z,95.93
2023-01-23T07:49:01.736Z,95.94
2023-01-23T07:54:03.951Z,95.90
2023-01-23T07:59:06.347Z,95.93
2023-01-23T08:04:08.814Z,96.02
2023-01-23T08:09:12.921Z,96.07
2023-01-23T08:14:24.974Z,96.08
2023-01-23T08:19:36.239Z,96.09
2023-01-23T08:24:38.404Z,96.11
2023-01-23T08:29:40.400Z,96.08
2023-01-23T08:34:45.295Z,96.09
2023-01-23T08:39:48.662Z,96.07
2023-01-23T08:44:50.726Z,96.03
2023-01-23T08:49:52.963Z,95.97
2023-01-23T08:54:54.935Z,95.91
2023-01-23T08:59:57.508Z,95.83
2023-01-23T09:04:59.427Z,95.83
2023-01-23T09:10:01.512Z,95.63
2023-01-23T09:15:04.974Z,95.50
2023-01-23T09:20:09.391Z,95.59
2023-01-23T09:25:14.543Z,95.52
2023-01-23T09:30:17.856Z,95.43
2023-01-23T09:35:24.366Z,95.54
2023-01-23T09:43:45.979Z,95.66
2023-01-23T09:49:50.207Z,95.71
2023-01-23T09:55:02.098Z,95.73
2023-01-23T10:00:30.850Z,95.74
2023-01-23T10:06:05.811Z,95.69
2023-01-23T10:11:26.426Z,95.37
2023-01-23T10:16:53.132Z,95.34
2023-01-23T10:22:28.808Z,95.33
2023-01-23T10:27:43.388Z,95.36
2023-01-23T10:32:52.883Z,95.24
2023-01-23T10:38:26.340Z,95.14
2023-01-23T10:43:28.520Z,94.53
2023-01-23T10:49:47.843Z,94.59
2023-01-23T10:54:50.717Z,94.48
2023-01-23T11:00:18.016Z,94.57
2023-01-23T11:05:52.835Z,94.65
2023-01-23T11:11:22.648Z,94.61
2023-01-23T11:16:30.734Z,94.56
2023-01-23T11:21:42.007Z,93.95
2023-01-23T11:26:46.262Z,93.49
2023-01-23T11:32:01.385Z,94.06
2023-01-23T11:37:17.647Z,93.85
2023-01-23T11:42:28.863Z,93.39
2023-01-23T11:48:00.825Z,93.59
2023-01-23T11:53:41.474Z,94.16
2023-01-23T11:59:17.031Z,94.68
2023-01-23T12:05:13.605Z,94.83
2023-01-23T12:11:09.428Z,94.33
2023-01-23T12:16:26.780Z,94.82
2023-01-23T12:21:59.162Z,95.17
2023-01-23T12:27:17.551Z,95.24
2023-01-23T12:32:58.181Z,95.45
2023-01-23T12:38:41.592Z,95.57
2023-01-23T12:43:54.235Z,95.71
2023-01-23T12:49:20.198Z,95.71
2023-01-23T12:54:36.773Z,95.80
2023-01-23T12:59:59.131Z,95.92
2023-01-23T13:05:16.244Z,95.95
2023-01-23T13:10:53.907Z,95.89
2023-01-23T13:16:14.820Z,95.85
2023-01-23T13:21:41.679Z,95.56
2023-01-23T13:26:44.643Z,95.65
2023-01-23T13:32:26.161Z,95.69
2023-01-23T13:37:39.190Z,95.72
2023-01-23T13:42:42.076Z,95.51
2023-01-23T13:48:15.770Z,95.33
2023-01-23T14:21:49.411Z,95.46
2023-01-23T14:27:09.575Z,95.54
2023-01-23T14:32:28.067Z,95.57
2023-01-23T14:37:35.247Z,95.63
2023-01-23T14:42:39.263Z,95.64
2023-01-23T14:47:50.881Z,95.68
2023-01-23T14:53:04.831Z,95.73
2023-01-23T14:58:23.986Z,95.70
2023-01-23T15:04:07.126Z,95.79
2023-01-23T15:09:21.308Z,95.81
2023-01-23T15:14:34.379Z,95.84
2023-01-23T15:19:45.986Z,95.77
2023-01-23T15:25:00.495Z,95.66
2023-01-23T15:30:45.384Z,95.45
2023-01-23T15:36:05.422Z,95.53
2023-01-23T15:41:30.132Z,95.29
2023-01-23T15:46:36.773Z,95.41
2023-01-23T15:51:44.959Z,95.53
2023-01-23T15:56:53.784Z,95.43
2023-01-23T16:02:29.639Z,95.43
2023-01-23T16:07:38.842Z,95.35
2023-01-23T16:12:48.977Z,95.23
2023-01-23T16:18:04.757Z,95.33
2023-01-23T16:23:39.126Z,94.93
2023-01-23T16:29:08.683Z,93.73
2023-01-23T16:34:21.513Z,94.41
2023-01-23T16:39:27.071Z,94.61
2023-01-23T16:44:34.564Z,94.30
2023-01-23T16:49:51.536Z,94.67
2023-01-23T16:54:55.841Z,94.56
2023-01-23T17:00:01.827Z,94.52
2023-01-23T17:05:11.770Z,93.91
2023-01-23T17:10:37.895Z,92.56
2023-01-23T17:15:50.058Z,93.47
2023-01-23T17:20:57.249Z,93.31
2023-01-23T17:26:01.537Z,93.26
2023-01-23T17:31:05.264Z,93.19
2023-01-23T17:36:08.132Z,92.15
2023-01-23T17:41:18.702Z,93.58
2023-01-23T17:46:28.003Z,93.39
2023-01-23T17:51:33.550Z,93.13
2023-01-23T17:56:38.771Z,92.71
2023-01-23T18:01:41.080Z,93.11
2023-01-23T18:06:46.588Z,92.72
2023-01-23T18:11:56.239Z,93.15
2023-01-23T18:17:02.164Z,93.78
2023-01-23T18:22:10.927Z,93.36
2023-01-23T18:27:29.813Z,92.63
2023-01-23T18:33:15.400Z,93.31
2023-01-23T18:39:01.915Z,92.60
2023-01-23T18:44:34.880Z,93.92
2023-01-23T18:49:42.927Z,94.48
2023-01-23T18:55:24.379Z,94.09
2023-01-23T19:00:49.685Z,93.56
2023-01-23T19:06:12.953Z,93.63
2023-01-23T19:11:54.627Z,94.35
2023-01-23T19:17:37.052Z,93.72
2023-01-23T19:22:53.493Z,93.12
2023-01-23T19:28:00.057Z,93.33
2023-01-23T19:33:03.285Z,93.76
2023-01-23T19:38:08.805Z,94.10
2023-01-23T19:43:17.862Z,94.06
2023-01-23T19:48:25.704Z,93.18
2023-01-23T19:53:33.296Z,93.04
2023-01-23T19:58:39.455Z,93.92
2023-01-23T20:03:46.468Z,94.35
2023-01-23T20:08:49.524Z,93.71
2023-01-23T20:13:58.032Z,94.05
2023-01-23T20:19:02.802Z,94.10
2023-01-23T20:24:07.256Z,94.24
2023-01-23T20:29:11.378Z,94.52
2023-01-23T20:34:36.999Z,94.50
2023-01-23T20:39:40.879Z,94.31
2023-01-23T20:44:48.863Z,94.40
2023-01-23T20:49:51.396Z,94.16
2023-01-23T20:55:07.174Z,94.63
2023-01-23T21:00:13.927Z,94.76
2023-01-23T21:05:16.685Z,94.42
2023-01-23T21:10:28.741Z,94.24
2023-01-23T21:15:34.810Z,93.93
2023-01-23T21:20:41.301Z,93.91
2023-01-23T21:26:03.484Z,93.75
2023-01-23T21:31:19.072Z,93.79
2023-01-23T21:36:28.340Z,93.71
2023-01-23T21:41:33.287Z,94.00
2023-01-23T21:46:36.896Z,94.06
2023-01-23T21:51:44.689Z,93.53
2023-01-23T21:56:50.839Z,93.21
2023-01-23T22:01:56.266Z,93.46
2023-01-23T22:07:01.947Z,93.87
2023-01-23T22:12:04.906Z,93.75
2023-01-23T22:17:15.114Z,93.67
2023-01-23T22:22:32.649Z,93.40
2023-01-23T22:27:37.776Z,93.22
2023-01-23T22:32:47.549Z,93.60
2023-01-23T22:37:56.017Z,93.84
2023-01-23T22:43:03.834Z,93.69
2023-01-23T22:48:07.229Z,93.64
2023-01-23T22:53:11.684Z,93.74
2023-01-23T22:58:23.612Z,93.79
2023-01-23T23:03:27.545Z,93.39
2023-01-23T23:08:30.591Z,93.39
2023-01-23T23:13:40.849Z,92.96
2023-01-23T23:18:44.496Z,92.73
2023-01-23T23:23:50.441Z,92.24
2023-01-23T23:29:03.840Z,92.44
2023-01-23T23:34:06.762Z,92.85
2023-01-23T23:39:10.272Z,93.25
2023-01-23T23:44:12.900Z,93.34
2023-01-23T23:49:22.040Z,93.12
2023-01-23T23:54:27.929Z,94.32
2023-01-23T23:59:33.889Z,93.64
